sensor_id;sensor_type;location;lat;lon;timestamp;pressure;altitude;pressure_sealevel;temperature;humidity
37142;BME280;23041;49.816;20.092;2022-07-04T00:01:21;97848.05;;;17.83;65.23
37142;BME280;23041;49.816;20.092;2022-07-04T00:03:48;97846.19;;;17.85;65.31
37142;BME280;23041;49.816;20.092;2022-07-04T00:06:14;97839.95;;;17.71;65.39
37142;BME280;23041;49.816;20.092;2022-07-04T00:08:40;97832.59;;;17.68;65.47
37142;BME280;23041;49.816;20.092;2022-07-04T00:11:07;97843.97;;;17.70;65.52
37142;BME280;23041;49.816;20.092;2022-07-04T00:13:33;97837.53;;;17.64;65.54
37142;BME280;23041;49.816;20.092;2022-07-04T00:16:00;97838.96;;;17.54;65.58
37142;BME280;23041;49.816;20.092;2022-07-04T00:18:26;97837.83;;;17.37;65.58
37142;BME280;23041;49.816;20.092;2022-07-04T00:20:53;97837.73;;;17.23;65.63
37142;BME280;23041;49.816;20.092;2022-07-04T00:23:19;97831.26;;;17.26;65.72
37142;BME280;23041;49.816;20.092;2022-07-04T00:25:45;97829.50;;;17.09;65.84
37142;BME280;23041;49.816;20.092;2022-07-04T00:28:12;97825.82;;;16.98;65.91
37142;BME280;23041;49.816;20.092;2022-07-04T00:30:39;97827.83;;;17.02;66.01
37142;BME280;23041;49.816;20.092;2022-07-04T00:33:05;97832.60;;;17.02;66.04
37142;BME280;23041;49.816;20.092;2022-07-04T00:35:32;97828.59;;;16.98;66.09
37142;BME280;23041;49.816;20.092;2022-07-04T00:37:58;97827.52;;;17.00;66.15
37142;BME280;23041;49.816;20.092;2022-07-04T00:40:24;97830.47;;;16.97;66.17
37142;BME280;23041;49.816;20.092;2022-07-04T00:42:51;97827.89;;;16.84;66.19
37142;BME280;23041;49.816;20.092;2022-07-04T00:45:17;97821.50;;;16.60;66.22
37142;BME280;23041;49.816;20.092;2022-07-04T00:47:44;97809.95;;;16.48;66.33
37142;BME280;23041;49.816;20.092;2022-07-04T00:50:11;97819.77;;;16.58;66.44
37142;BME280;23041;49.816;20.092;2022-07-04T00:52:37;97821.02;;;16.66;66.53
37142;BME280;23041;49.816;20.092;2022-07-04T00:55:04;97815.14;;;16.68;66.58
37142;BME280;23041;49.816;20.092;2022-07-04T00:57:30;97813.80;;;16.59;66.62
37142;BME280;23041;49.816;20.092;2022-07-04T00:59:57;97815.64;;;16.49;66.63
37142;BME280;23041;49.816;20.092;2022-07-04T01:02:23;97812.11;;;16.39;66.67
37142;BME280;23041;49.816;20.092;2022-07-04T01:04:50;97813.37;;;16.38;66.76
37142;BME280;23041;49.816;20.092;2022-07-04T01:07:16;97814.89;;;16.34;66.84
37142;BME280;23041;49.816;20.092;2022-07-04T01:09:43;97813.97;;;16.42;66.90
37142;BME280;23041;49.816;20.092;2022-07-04T01:12:10;97819.96;;;16.41;66.93
37142;BME280;23041;49.816;20.092;2022-07-04T01:14:37;97817.99;;;16.32;66.95
37142;BME280;23041;49.816;20.092;2022-07-04T01:17:04;97815.83;;;16.22;66.98
37142;BME280;23041;49.816;20.092;2022-07-04T01:19:31;97820.14;;;16.23;67.02
37142;BME280;23041;49.816;20.092;2022-07-04T01:21:57;97808.94;;;16.13;67.07
37142;BME280;23041;49.816;20.092;2022-07-04T01:24:24;97813.38;;;16.11;67.13
37142;BME280;23041;49.816;20.092;2022-07-04T01:26:51;97808.47;;;16.06;67.19
37142;BME280;23041;49.816;20.092;2022-07-04T01:29:17;97812.47;;;16.05;67.19
37142;BME280;23041;49.816;20.092;2022-07-04T01:31:43;97808.77;;;16.03;67.20
37142;BME280;23041;49.816;20.092;2022-07-04T01:34:10;97807.09;;;16.01;67.21
37142;BME280;23041;49.816;20.092;2022-07-04T01:36:36;97804.17;;;16.00;67.20
37142;BME280;23041;49.816;20.092;2022-07-04T01:39:03;97802.62;;;15.95;67.25
37142;BME280;23041;49.816;20.092;2022-07-04T01:41:35;97800.16;;;15.92;67.26
37142;BME280;23041;49.816;20.092;2022-07-04T01:44:02;97792.78;;;15.80;67.33
37142;BME280;23041;49.816;20.092;2022-07-04T01:46:28;97800.00;;;15.68;67.36
37142;BME280;23041;49.816;20.092;2022-07-04T01:48:54;97808.01;;;15.66;67.38
37142;BME280;23041;49.816;20.092;2022-07-04T01:51:21;97810.00;;;15.66;67.40
37142;BME280;23041;49.816;20.092;2022-07-04T01:53:47;97810.00;;;15.66;67.46
37142;BME280;23041;49.816;20.092;2022-07-04T01:56:13;97815.67;;;15.62;67.50
37142;BME280;23041;49.816;20.092;2022-07-04T01:58:40;97815.67;;;15.58;67.55
37142;BME280;23041;49.816;20.092;2022-07-04T02:01:06;97813.48;;;15.48;67.54
37142;BME280;23041;49.816;20.092;2022-07-04T02:03:50;97810.39;;;15.37;67.62
37142;BME280;23041;49.816;20.092;2022-07-04T02:06:17;97812.97;;;15.31;67.67
37142;BME280;23041;49.816;20.092;2022-07-04T02:08:43;97820.20;;;15.33;67.71
37142;BME280;23041;49.816;20.092;2022-07-04T02:11:28;97820.81;;;15.33;67.75
37142;BME280;23041;49.816;20.092;2022-07-04T02:13:56;97817.60;;;15.39;67.82
37142;BME280;23041;49.816;20.092;2022-07-04T02:16:23;97825.28;;;15.39;67.91
37142;BME280;23041;49.816;20.092;2022-07-04T02:18:49;97822.84;;;15.41;67.98
37142;BME280;23041;49.816;20.092;2022-07-04T02:21:15;97809.75;;;15.28;68.05
37142;BME280;23041;49.816;20.092;2022-07-04T02:23:42;97813.73;;;15.27;68.14
37142;BME280;23041;49.816;20.092;2022-07-04T02:26:08;97817.27;;;15.28;68.23
37142;BME280;23041;49.816;20.092;2022-07-04T02:28:34;97830.20;;;15.35;68.28
37142;BME280;23041;49.816;20.092;2022-07-04T02:31:01;97831.27;;;15.38;68.33
37142;BME280;23041;49.816;20.092;2022-07-04T02:33:27;97826.05;;;15.31;68.32
37142;BME280;23041;49.816;20.092;2022-07-04T02:35:57;97826.95;;;15.28;68.29
37142;BME280;23041;49.816;20.092;2022-07-04T02:38:23;97832.31;;;15.22;68.31
37142;BME280;23041;49.816;20.092;2022-07-04T02:40:49;97830.44;;;15.15;68.33
37142;BME280;23041;49.816;20.092;2022-07-04T02:43:15;97833.02;;;15.04;68.38
37142;BME280;23041;49.816;20.092;2022-07-04T02:45:42;97828.41;;;15.01;68.44
37142;BME280;23041;49.816;20.092;2022-07-04T02:48:08;97837.02;;;15.08;68.50
37142;BME280;23041;49.816;20.092;2022-07-04T02:50:34;97842.08;;;15.05;68.54
37142;BME280;23041;49.816;20.092;2022-07-04T02:53:00;97838.09;;;15.01;68.52
37142;BME280;23041;49.816;20.092;2022-07-04T02:55:27;97840.21;;;15.02;68.53
37142;BME280;23041;49.816;20.092;2022-07-04T02:57:53;97844.86;;;15.09;68.59
37142;BME280;23041;49.816;20.092;2022-07-04T03:00:19;97838.21;;;14.98;68.66
37142;BME280;23041;49.816;20.092;2022-07-04T03:02:46;97841.14;;;14.99;68.74
37142;BME280;23041;49.816;20.092;2022-07-04T03:05:12;97841.92;;;15.04;68.80
37142;BME280;23041;49.816;20.092;2022-07-04T03:07:38;97852.09;;;15.11;68.84
37142;BME280;23041;49.816;20.092;2022-07-04T03:10:05;97845.03;;;15.15;68.87
37142;BME280;23041;49.816;20.092;2022-07-04T03:12:32;97851.78;;;15.14;68.87
37142;BME280;23041;49.816;20.092;2022-07-04T03:14:59;97851.22;;;15.24;68.88
37142;BME280;23041;49.816;20.092;2022-07-04T03:17:26;97845.09;;;15.33;68.91
37142;BME280;23041;49.816;20.092;2022-07-04T03:19:52;97834.80;;;15.29;68.98
37142;BME280;23041;49.816;20.092;2022-07-04T03:22:19;97833.73;;;15.36;69.04
37142;BME280;23041;49.816;20.092;2022-07-04T03:24:45;97833.14;;;15.50;69.10
37142;BME280;23041;49.816;20.092;2022-07-04T03:27:11;97837.35;;;15.59;69.12
37142;BME280;23041;49.816;20.092;2022-07-04T03:29:37;97835.36;;;15.69;69.15
37142;BME280;23041;49.816;20.092;2022-07-04T03:32:05;97839.22;;;15.76;69.17
37142;BME280;23041;49.816;20.092;2022-07-04T03:34:31;97843.23;;;15.84;69.19
37142;BME280;23041;49.816;20.092;2022-07-04T03:36:58;97830.30;;;15.85;69.28
37142;BME280;23041;49.816;20.092;2022-07-04T03:39:24;97831.55;;;16.03;69.33
37142;BME280;23041;49.816;20.092;2022-07-04T03:41:51;97831.39;;;16.20;69.36
37142;BME280;23041;49.816;20.092;2022-07-04T03:44:17;97831.36;;;16.33;69.36
37142;BME280;23041;49.816;20.092;2022-07-04T03:46:43;97830.13;;;16.44;69.36
37142;BME280;23041;49.816;20.092;2022-07-04T03:49:10;97824.55;;;16.53;69.36
37142;BME280;23041;49.816;20.092;2022-07-04T03:51:36;97824.58;;;16.62;69.35
37142;BME280;23041;49.816;20.092;2022-07-04T03:54:02;97822.70;;;16.63;69.33
37142;BME280;23041;49.816;20.092;2022-07-04T03:56:29;97824.23;;;16.73;69.38
37142;BME280;23041;49.816;20.092;2022-07-04T03:58:56;97828.48;;;16.88;69.39
37142;BME280;23041;49.816;20.092;2022-07-04T04:01:22;97830.73;;;17.08;69.43
37142;BME280;23041;49.816;20.092;2022-07-04T04:03:49;97835.11;;;17.24;69.46
37142;BME280;23041;49.816;20.092;2022-07-04T04:06:33;97835.64;;;17.41;69.49
37142;BME280;23041;49.816;20.092;2022-07-04T04:09:00;97839.69;;;17.64;69.54
37142;BME280;23041;49.816;20.092;2022-07-04T04:11:26;97828.39;;;17.72;69.60
37142;BME280;23041;49.816;20.092;2022-07-04T04:13:52;97821.63;;;17.88;69.68
37142;BME280;23041;49.816;20.092;2022-07-04T04:16:19;97828.33;;;18.01;69.74
37142;BME280;23041;49.816;20.092;2022-07-04T04:18:45;97837.32;;;18.15;69.76
37142;BME280;23041;49.816;20.092;2022-07-04T04:21:11;97843.81;;;18.31;69.72
37142;BME280;23041;49.816;20.092;2022-07-04T04:23:38;97844.52;;;18.41;69.69
37142;BME280;23041;49.816;20.092;2022-07-04T04:26:04;97846.25;;;18.53;69.65
37142;BME280;23041;49.816;20.092;2022-07-04T04:28:30;97837.14;;;18.52;69.60
37142;BME280;23041;49.816;20.092;2022-07-04T04:30:57;97837.21;;;18.62;69.56
37142;BME280;23041;49.816;20.092;2022-07-04T04:33:23;97835.23;;;18.73;69.51
37142;BME280;23041;49.816;20.092;2022-07-04T04:35:49;97835.95;;;18.93;69.45
37142;BME280;23041;49.816;20.092;2022-07-04T04:38:16;97830.09;;;19.05;69.33
37142;BME280;23041;49.816;20.092;2022-07-04T04:40:42;97834.14;;;19.14;69.23
37142;BME280;23041;49.816;20.092;2022-07-04T04:43:09;97835.42;;;19.24;69.13
37142;BME280;23041;49.816;20.092;2022-07-04T04:45:35;97844.20;;;19.37;69.02
37142;BME280;23041;49.816;20.092;2022-07-04T04:48:02;97837.24;;;19.37;68.96
37142;BME280;23041;49.816;20.092;2022-07-04T04:50:28;97835.84;;;19.51;68.85
37142;BME280;23041;49.816;20.092;2022-07-04T04:52:54;97839.28;;;19.71;68.76
37142;BME280;23041;49.816;20.092;2022-07-04T04:55:21;97843.38;;;19.86;68.62
37142;BME280;23041;49.816;20.092;2022-07-04T04:57:47;97832.11;;;19.95;68.48
37142;BME280;23041;49.816;20.092;2022-07-04T05:00:14;97839.28;;;20.02;68.33
37142;BME280;23041;49.816;20.092;2022-07-04T05:02:40;97843.64;;;20.08;68.16
37142;BME280;23041;49.816;20.092;2022-07-04T05:05:07;97831.76;;;20.08;68.01
37142;BME280;23041;49.816;20.092;2022-07-04T05:07:34;97832.78;;;20.10;67.93
37142;BME280;23041;49.816;20.092;2022-07-04T05:10:02;97830.34;;;20.18;67.78
37142;BME280;23041;49.816;20.092;2022-07-04T05:12:29;97840.08;;;20.38;67.63
37142;BME280;23041;49.816;20.092;2022-07-04T05:14:55;97838.54;;;20.47;67.48
37142;BME280;23041;49.816;20.092;2022-07-04T05:17:22;97850.66;;;20.54;67.30
37142;BME280;23041;49.816;20.092;2022-07-04T05:19:49;97843.25;;;20.61;67.13
37142;BME280;23041;49.816;20.092;2022-07-04T05:22:16;97830.42;;;20.59;66.96
37142;BME280;23041;49.816;20.092;2022-07-04T05:24:43;97832.96;;;20.89;66.63
37142;BME280;23041;49.816;20.092;2022-07-04T05:27:09;97832.96;;;20.89;66.63
37142;BME280;23041;49.816;20.092;2022-07-04T05:29:36;97832.36;;;21.10;66.18
37142;BME280;23041;49.816;20.092;2022-07-04T05:32:05;97832.36;;;21.10;66.18
37142;BME280;23041;49.816;20.092;2022-07-04T05:34:32;97831.00;;;21.26;66.14
37142;BME280;23041;49.816;20.092;2022-07-04T05:36:58;97827.78;;;21.39;66.02
37142;BME280;23041;49.816;20.092;2022-07-04T05:39:24;97828.14;;;21.36;65.90
37142;BME280;23041;49.816;20.092;2022-07-04T05:41:51;97833.20;;;21.32;65.90
37142;BME280;23041;49.816;20.092;2022-07-04T05:44:17;97838.69;;;21.64;64.94
37142;BME280;23041;49.816;20.092;2022-07-04T05:46:43;97834.20;;;21.77;65.36
37142;BME280;23041;49.816;20.092;2022-07-04T05:49:10;97834.20;;;21.77;65.36
37142;BME280;23041;49.816;20.092;2022-07-04T05:51:36;97839.62;;;21.92;64.95
37142;BME280;23041;49.816;20.092;2022-07-04T05:54:02;97845.66;;;22.06;64.74
37142;BME280;23041;49.816;20.092;2022-07-04T05:56:29;97846.59;;;22.19;64.53
37142;BME280;23041;49.816;20.092;2022-07-04T05:58:56;97848.92;;;22.31;64.25
37142;BME280;23041;49.816;20.092;2022-07-04T06:01:22;97845.02;;;22.45;64.05
37142;BME280;23041;49.816;20.092;2022-07-04T06:03:49;97839.94;;;22.49;63.83
37142;BME280;23041;49.816;20.092;2022-07-04T06:06:15;97850.38;;;22.59;63.63
37142;BME280;23041;49.816;20.092;2022-07-04T06:08:42;97851.72;;;22.81;63.37
37142;BME280;23041;49.816;20.092;2022-07-04T06:11:09;97851.22;;;22.93;63.09
37142;BME280;23041;49.816;20.092;2022-07-04T06:13:35;97852.36;;;23.08;62.83
37142;BME280;23041;49.816;20.092;2022-07-04T06:16:01;97856.31;;;23.23;62.51
37142;BME280;23041;49.816;20.092;2022-07-04T06:18:28;97853.49;;;23.34;62.20
37142;BME280;23041;49.816;20.092;2022-07-04T06:20:55;97851.72;;;23.53;61.99
37142;BME280;23041;49.816;20.092;2022-07-04T06:23:22;97851.80;;;23.71;61.82
37142;BME280;23041;49.816;20.092;2022-07-04T06:25:48;97849.86;;;23.83;61.72
37142;BME280;23041;49.816;20.092;2022-07-04T06:28:14;97851.22;;;23.94;61.50
37142;BME280;23041;49.816;20.092;2022-07-04T06:30:41;97855.34;;;24.11;61.36
37142;BME280;23041;49.816;20.092;2022-07-04T06:33:07;97852.14;;;24.25;61.23
37142;BME280;23041;49.816;20.092;2022-07-04T06:35:34;97848.86;;;24.38;60.98
37142;BME280;23041;49.816;20.092;2022-07-04T06:38:22;97852.01;;;24.47;60.69
37142;BME280;23041;49.816;20.092;2022-07-04T06:40:53;97852.23;;;24.49;60.39
37142;BME280;23041;49.816;20.092;2022-07-04T06:43:22;97847.98;;;24.60;60.16
37142;BME280;23041;49.816;20.092;2022-07-04T06:45:49;97847.73;;;24.76;59.93
37142;BME280;23041;49.816;20.092;2022-07-04T06:48:15;97842.04;;;24.87;59.68
37142;BME280;23041;49.816;20.092;2022-07-04T06:50:41;97840.50;;;24.92;59.47
37142;BME280;23041;49.816;20.092;2022-07-04T06:53:09;97836.14;;;24.96;59.22
37142;BME280;23041;49.816;20.092;2022-07-04T06:55:41;97840.61;;;25.10;59.08
37142;BME280;23041;49.816;20.092;2022-07-04T06:58:07;97837.16;;;25.11;58.83
37142;BME280;23041;49.816;20.092;2022-07-04T07:00:34;97833.27;;;25.19;58.58
37142;BME280;23041;49.816;20.092;2022-07-04T07:03:03;97837.31;;;25.36;58.40
37142;BME280;23041;49.816;20.092;2022-07-04T07:05:30;97834.97;;;25.52;58.24
37142;BME280;23041;49.816;20.092;2022-07-04T07:07:57;97830.39;;;25.67;57.98
37142;BME280;23041;49.816;20.092;2022-07-04T07:10:24;97832.19;;;25.77;57.65
37142;BME280;23041;49.816;20.092;2022-07-04T07:12:51;97830.38;;;25.79;57.29
37142;BME280;23041;49.816;20.092;2022-07-04T07:15:17;97841.83;;;25.93;57.00
37142;BME280;23041;49.816;20.092;2022-07-04T07:17:45;97840.34;;;26.11;56.72
37142;BME280;23041;49.816;20.092;2022-07-04T07:20:12;97844.59;;;26.30;56.40
37142;BME280;23041;49.816;20.092;2022-07-04T07:22:40;97836.80;;;26.48;56.01
37142;BME280;23041;49.816;20.092;2022-07-04T07:25:08;97845.44;;;26.62;55.56
37142;BME280;23041;49.816;20.092;2022-07-04T07:27:37;97841.92;;;26.75;55.04
37142;BME280;23041;49.816;20.092;2022-07-04T07:30:05;97838.76;;;26.91;54.62
37142;BME280;23041;49.816;20.092;2022-07-04T07:32:32;97838.48;;;27.07;54.22
37142;BME280;23041;49.816;20.092;2022-07-04T07:34:58;97840.48;;;27.26;53.85
37142;BME280;23041;49.816;20.092;2022-07-04T07:37:24;97835.11;;;27.41;53.57
37142;BME280;23041;49.816;20.092;2022-07-04T07:39:52;97831.09;;;27.49;53.25
37142;BME280;23041;49.816;20.092;2022-07-04T07:42:18;97831.54;;;27.47;52.93
37142;BME280;23041;49.816;20.092;2022-07-04T07:44:44;97833.25;;;27.43;52.70
37142;BME280;23041;49.816;20.092;2022-07-04T07:47:12;97830.44;;;27.43;52.49
37142;BME280;23041;49.816;20.092;2022-07-04T07:49:39;97831.73;;;27.42;52.17
37142;BME280;23041;49.816;20.092;2022-07-04T07:52:06;97837.91;;;27.47;51.97
37142;BME280;23041;49.816;20.092;2022-07-04T07:54:33;97837.08;;;27.59;51.66
37142;BME280;23041;49.816;20.092;2022-07-04T07:56:59;97835.79;;;27.67;51.43
37142;BME280;23041;49.816;20.092;2022-07-04T07:59:25;97830.16;;;27.67;51.06
37142;BME280;23041;49.816;20.092;2022-07-04T08:01:52;97826.35;;;27.77;50.66
37142;BME280;23041;49.816;20.092;2022-07-04T08:04:18;97822.23;;;27.98;50.53
37142;BME280;23041;49.816;20.092;2022-07-04T08:07:02;97824.06;;;28.02;50.16
37142;BME280;23041;49.816;20.092;2022-07-04T08:09:33;97828.71;;;28.13;49.72
37142;BME280;23041;49.816;20.092;2022-07-04T08:12:00;97826.24;;;28.22;49.21
37142;BME280;23041;49.816;20.092;2022-07-04T08:14:27;97826.66;;;28.26;48.76
37142;BME280;23041;49.816;20.092;2022-07-04T08:16:53;97823.66;;;28.18;48.65
37142;BME280;23041;49.816;20.092;2022-07-04T08:19:21;97822.33;;;28.19;48.60
37142;BME280;23041;49.816;20.092;2022-07-04T08:21:48;97815.47;;;28.34;48.42
37142;BME280;23041;49.816;20.092;2022-07-04T08:24:14;97827.52;;;28.34;48.18
37142;BME280;23041;49.816;20.092;2022-07-04T08:26:42;97824.11;;;28.42;47.92
37142;BME280;23041;49.816;20.092;2022-07-04T08:41:46;97822.78;;;29.67;46.32
37142;BME280;23041;49.816;20.092;2022-07-04T08:44:14;97831.95;;;29.88;45.98
37142;BME280;23041;49.816;20.092;2022-07-04T08:46:42;97825.61;;;29.95;45.58
37142;BME280;23041;49.816;20.092;2022-07-04T08:49:20;97841.17;;;29.95;45.31
37142;BME280;23041;49.816;20.092;2022-07-04T08:51:52;97839.23;;;29.90;44.87
37142;BME280;23041;49.816;20.092;2022-07-04T08:54:24;97838.94;;;30.01;44.54
37142;BME280;23041;49.816;20.092;2022-07-04T08:57:10;97830.03;;;29.97;44.00
37142;BME280;23041;49.816;20.092;2022-07-04T08:59:57;97835.33;;;29.87;43.83
37142;BME280;23041;49.816;20.092;2022-07-04T09:02:30;97840.70;;;29.84;43.55
37142;BME280;23041;49.816;20.092;2022-07-04T09:04:55;97838.47;;;29.90;43.05
37142;BME280;23041;49.816;20.092;2022-07-04T09:07:22;97840.12;;;29.85;42.55
37142;BME280;23041;49.816;20.092;2022-07-04T09:09:49;97841.66;;;30.00;42.50
37142;BME280;23041;49.816;20.092;2022-07-04T09:12:16;97836.99;;;30.11;42.35
37142;BME280;23041;49.816;20.092;2022-07-04T09:14:42;97838.84;;;30.22;42.15
37142;BME280;23041;49.816;20.092;2022-07-04T09:17:09;97839.47;;;30.50;42.06
37142;BME280;23041;49.816;20.092;2022-07-04T09:19:35;97834.80;;;30.68;41.63
37142;BME280;23041;49.816;20.092;2022-07-04T09:22:09;97840.88;;;30.79;41.21
37142;BME280;23041;49.816;20.092;2022-07-04T09:24:48;97844.28;;;30.86;40.94
37142;BME280;23041;49.816;20.092;2022-07-04T09:27:31;97839.93;;;30.85;40.75
37142;BME280;23041;49.816;20.092;2022-07-04T09:30:02;97843.67;;;30.72;40.36
37142;BME280;23041;49.816;20.092;2022-07-04T09:32:36;97841.92;;;30.54;40.10
37142;BME280;23041;49.816;20.092;2022-07-04T09:35:12;97841.02;;;30.66;40.16
37142;BME280;23041;49.816;20.092;2022-07-04T09:37:47;97843.13;;;30.73;39.58
37142;BME280;23041;49.816;20.092;2022-07-04T09:42:58;97838.69;;;31.39;39.58
37142;BME280;23041;49.816;20.092;2022-07-04T09:45:25;97837.80;;;31.52;39.38
37142;BME280;23041;49.816;20.092;2022-07-04T09:47:57;97840.11;;;31.69;39.16
37142;BME280;23041;49.816;20.092;2022-07-04T09:50:26;97833.82;;;31.93;38.87
37142;BME280;23041;49.816;20.092;2022-07-04T09:52:59;97837.98;;;32.24;38.51
37142;BME280;23041;49.816;20.092;2022-07-04T09:55:29;97834.02;;;32.27;37.78
37142;BME280;23041;49.816;20.092;2022-07-04T09:57:59;97833.77;;;32.16;37.31
37142;BME280;23041;49.816;20.092;2022-07-04T10:00:29;97836.15;;;32.59;37.50
37142;BME280;23041;49.816;20.092;2022-07-04T10:03:23;97830.23;;;32.88;37.21
37142;BME280;23041;49.816;20.092;2022-07-04T10:06:12;97829.05;;;33.24;36.90
37142;BME280;23041;49.816;20.092;2022-07-04T10:08:42;97826.67;;;33.71;36.79
37142;BME280;23041;49.816;20.092;2022-07-04T10:11:10;97833.30;;;34.08;36.24
37142;BME280;23041;49.816;20.092;2022-07-04T10:13:37;97822.73;;;34.26;35.45
37142;BME280;23041;49.816;20.092;2022-07-04T10:16:06;97822.24;;;34.37;34.85
37142;BME280;23041;49.816;20.092;2022-07-04T10:18:35;97820.87;;;34.56;34.23
37142;BME280;23041;49.816;20.092;2022-07-04T10:21:01;97822.83;;;34.36;33.75
37142;BME280;23041;49.816;20.092;2022-07-04T10:23:28;97817.38;;;34.13;33.13
37142;BME280;23041;49.816;20.092;2022-07-04T10:25:58;97813.78;;;34.13;32.81
37142;BME280;23041;49.816;20.092;2022-07-04T10:28:25;97811.11;;;34.23;32.83
37142;BME280;23041;49.816;20.092;2022-07-04T10:30:53;97816.11;;;34.41;32.65
37142;BME280;23041;49.816;20.092;2022-07-04T10:33:24;97818.48;;;34.79;32.69
37142;BME280;23041;49.816;20.092;2022-07-04T10:41:07;97832.12;;;35.44;31.81
37142;BME280;23041;49.816;20.092;2022-07-04T10:43:36;97815.75;;;35.72;31.52
37142;BME280;23041;49.816;20.092;2022-07-04T10:54:39;97807.89;;;35.91;30.23
37142;BME280;23041;49.816;20.092;2022-07-04T10:57:15;97809.76;;;36.07;30.03
37142;BME280;23041;49.816;20.092;2022-07-04T11:05:08;97800.00;;;36.10;29.68
37142;BME280;23041;49.816;20.092;2022-07-04T11:18:10;97795.03;;;35.91;29.12
37142;BME280;23041;49.816;20.092;2022-07-04T11:20:45;97789.55;;;35.75;29.03
37142;BME280;23041;49.816;20.092;2022-07-04T11:23:17;97796.91;;;35.68;29.19
37142;BME280;23041;49.816;20.092;2022-07-04T11:25:48;97788.48;;;35.52;29.29
37142;BME280;23041;49.816;20.092;2022-07-04T11:28:23;97792.33;;;36.03;29.51
37142;BME280;23041;49.816;20.092;2022-07-04T11:31:01;97792.48;;;36.24;29.28
37142;BME280;23041;49.816;20.092;2022-07-04T11:33:30;97791.73;;;36.33;29.11
37142;BME280;23041;49.816;20.092;2022-07-04T11:36:18;97785.04;;;36.10;28.68
37142;BME280;23041;49.816;20.092;2022-07-04T11:38:58;97790.53;;;35.97;28.61
37142;BME280;23041;49.816;20.092;2022-07-04T11:41:32;97784.44;;;36.02;28.75
37142;BME280;23041;49.816;20.092;2022-07-04T11:44:21;97776.47;;;35.91;28.65
37142;BME280;23041;49.816;20.092;2022-07-04T11:47:10;97776.01;;;35.38;28.45
37142;BME280;23041;49.816;20.092;2022-07-04T11:49:53;97781.17;;;35.31;28.52
37142;BME280;23041;49.816;20.092;2022-07-04T11:52:27;97777.57;;;35.40;28.80
37142;BME280;23041;49.816;20.092;2022-07-04T11:55:00;97774.13;;;35.41;28.77
37142;BME280;23041;49.816;20.092;2022-07-04T11:57:28;97776.22;;;35.31;28.38
37142;BME280;23041;49.816;20.092;2022-07-04T12:00:16;97776.52;;;35.17;28.40
37142;BME280;23041;49.816;20.092;2022-07-04T12:02:49;97766.23;;;34.95;28.48
37142;BME280;23041;49.816;20.092;2022-07-04T12:05:16;97767.10;;;34.88;28.61
37142;BME280;23041;49.816;20.092;2022-07-04T12:07:48;97767.18;;;35.07;28.86
37142;BME280;23041;49.816;20.092;2022-07-04T12:10:16;97762.78;;;35.14;28.70
37142;BME280;23041;49.816;20.092;2022-07-04T12:13:05;97762.98;;;35.08;28.90
37142;BME280;23041;49.816;20.092;2022-07-04T12:15:42;97760.41;;;35.02;29.10
37142;BME280;23041;49.816;20.092;2022-07-04T12:20:53;97761.48;;;34.70;29.28
37142;BME280;23041;49.816;20.092;2022-07-04T12:23:20;97759.89;;;34.87;29.05
37142;BME280;23041;49.816;20.092;2022-07-04T12:25:49;97760.89;;;34.90;28.79
37142;BME280;23041;49.816;20.092;2022-07-04T12:28:18;97755.86;;;34.90;28.68
37142;BME280;23041;49.816;20.092;2022-07-04T12:30:54;97751.47;;;34.97;28.37
37142;BME280;23041;49.816;20.092;2022-07-04T12:33:23;97752.90;;;34.97;28.19
37142;BME280;23041;49.816;20.092;2022-07-04T12:35:59;97757.84;;;34.78;28.07
37142;BME280;23041;49.816;20.092;2022-07-04T12:41:09;97749.55;;;34.46;28.07
37142;BME280;23041;49.816;20.092;2022-07-04T12:48:57;97748.86;;;33.68;27.92
37142;BME280;23041;49.816;20.092;2022-07-04T12:51:27;97745.66;;;33.38;28.08
37142;BME280;23041;49.816;20.092;2022-07-04T12:53:57;97741.81;;;33.43;28.27
37142;BME280;23041;49.816;20.092;2022-07-04T12:56:32;97745.25;;;33.68;28.32
37142;BME280;23041;49.816;20.092;2022-07-04T12:59:05;97746.27;;;33.97;28.30
37142;BME280;23041;49.816;20.092;2022-07-04T13:01:28;97744.84;;;33.97;28.25
37142;BME280;23041;49.816;20.092;2022-07-04T13:03:55;97752.72;;;33.97;28.24
37142;BME280;23041;49.816;20.092;2022-07-04T13:06:22;97759.18;;;33.81;28.28
37142;BME280;23041;49.816;20.092;2022-07-04T13:08:48;97753.98;;;33.87;28.03
37142;BME280;23041;49.816;20.092;2022-07-04T13:11:15;97754.66;;;33.95;27.94
37142;BME280;23041;49.816;20.092;2022-07-04T13:14:00;97749.31;;;33.82;27.98
37142;BME280;23041;49.816;20.092;2022-07-04T13:16:26;97748.36;;;34.05;28.24
37142;BME280;23041;49.816;20.092;2022-07-04T13:18:53;97748.75;;;34.27;28.11
37142;BME280;23041;49.816;20.092;2022-07-04T13:21:19;97746.07;;;34.38;28.28
37142;BME280;23041;49.816;20.092;2022-07-04T13:23:47;97752.81;;;34.69;28.15
37142;BME280;23041;49.816;20.092;2022-07-04T13:26:14;97745.98;;;35.00;27.86
37142;BME280;23041;49.816;20.092;2022-07-04T13:28:43;97747.38;;;35.27;27.46
37142;BME280;23041;49.816;20.092;2022-07-04T13:31:11;97744.00;;;35.30;27.03
37142;BME280;23041;49.816;20.092;2022-07-04T13:33:37;97745.63;;;35.60;26.99
37142;BME280;23041;49.816;20.092;2022-07-04T13:36:04;97747.81;;;35.99;26.71
37142;BME280;23041;49.816;20.092;2022-07-04T13:38:32;97750.97;;;36.13;26.37
37142;BME280;23041;49.816;20.092;2022-07-04T13:40:58;97752.50;;;36.05;26.34
37142;BME280;23041;49.816;20.092;2022-07-04T13:43:25;97733.66;;;35.53;26.30
37142;BME280;23041;49.816;20.092;2022-07-04T13:45:54;97747.77;;;35.32;26.37
37142;BME280;23041;49.816;20.092;2022-07-04T13:48:23;97747.56;;;35.58;26.30
37142;BME280;23041;49.816;20.092;2022-07-04T13:50:50;97736.59;;;35.64;25.96
37142;BME280;23041;49.816;20.092;2022-07-04T13:53:17;97726.77;;;35.56;25.52